Time;durP1;ratioP1;P1;durP2;ratioP2;P2;SDS_P1;SDS_P2;PMS_P1;PMS_P2;Temp;Humidity;BMP_temperature;BMP_pressure;BME280_temperature;BME280_humidity;BME280_pressure;Samples;Min_cycle;Max_cycle;Signal;HPM_P1;HPM_P2
2023/03/26 00:02:05;;;;;;;28.80;7.45;;;12.20;99.90;;;12.47;85.24;100542.84;4993230;28;20125;-66
2023/03/26 00:04:33;;;;;;;36.05;9.15;;;12.20;99.90;;;12.49;85.42;100544.56;4993221;28;20066;-66
2023/03/26 00:07:01;;;;;;;37.05;8.40;;;12.20;99.90;;;12.49;85.89;100544.56;4993091;28;20038;-66
2023/03/26 00:09:31;;;;;;;48.13;10.43;;;12.20;99.90;;;12.53;86.26;100540.09;4993148;28;20042;-66
2023/03/26 00:12:00;;;;;;;43.47;11.50;;;12.20;99.90;;;12.50;86.42;100529.53;4992037;28;20046;-66
2023/03/26 00:14:29;;;;;;;41.85;9.40;;;12.20;99.90;;;12.52;86.82;100533.03;4993213;28;20051;-65
2023/03/26 00:16:57;;;;;;;51.15;10.70;;;12.20;99.90;;;12.55;86.81;100527.66;4993105;28;20074;-66
2023/03/26 00:19:26;;;;;;;48.78;10.90;;;12.20;99.90;;;12.61;86.67;100520.47;4993284;28;20054;-66
2023/03/26 00:21:56;;;;;;;46.38;10.80;;;12.20;99.90;;;12.63;86.55;100520.44;4992991;28;20047;-66
2023/03/26 00:24:28;;;;;;;52.28;11.00;;;12.30;99.90;;;12.63;86.60;100518.69;4993686;28;20046;-66
2023/03/26 00:26:58;;;;;;;55.80;11.60;;;12.30;99.90;;;12.61;86.69;100512.53;4991885;28;20117;-66
2023/03/26 00:29:27;;;;;;;59.88;11.93;;;12.30;99.90;;;12.61;87.04;100516.94;4993078;28;20454;-66
2023/03/26 00:31:56;;;;;;;56.90;11.85;;;12.30;99.90;;;12.61;86.90;100512.53;4992994;28;20488;-66
2023/03/26 00:34:25;;;;;;;67.65;12.88;;;12.30;99.90;;;12.62;86.78;100505.41;4992764;28;20100;-66
2023/03/26 00:36:53;;;;;;;51.13;12.15;;;12.30;99.90;;;12.67;87.10;100495.59;4991725;28;20153;-66
2023/03/26 00:39:23;;;;;;;64.43;13.50;;;12.30;99.90;;;12.03;86.74;100384.53;4991999;28;20088;-66
2023/03/26 00:41:53;;;;;;;55.17;12.02;;;12.40;99.90;;;12.66;86.87;100493.84;4991668;28;20050;-66
2023/03/26 00:44:23;;;;;;;56.92;13.85;;;12.30;99.90;;;12.68;86.95;100497.34;4992976;28;20129;-66
2023/03/26 00:46:52;;;;;;;58.63;13.43;;;12.30;99.90;;;12.69;86.97;100484.06;4992812;28;20455;-66
2023/03/26 00:49:20;;;;;;;57.60;12.27;;;12.30;99.90;;;12.69;86.62;100484.06;4991701;28;20075;-66
2023/03/26 00:51:48;;;;;;;49.53;12.52;;;12.40;99.90;;;12.70;86.73;100479.63;4993084;28;20471;-66
2023/03/26 00:54:17;;;;;;;52.80;11.48;;;12.40;99.90;;;12.70;86.41;100480.50;4991607;28;20046;-66
2023/03/26 00:56:45;;;;;;;53.72;11.85;;;12.40;99.90;;;12.64;86.39;100477.06;4991523;28;20053;-66
2023/03/26 00:59:14;;;;;;;56.75;11.80;;;12.40;99.90;;;12.57;86.47;100475.44;4992709;28;20050;-66
2023/03/26 01:01:44;;;;;;;60.13;12.57;;;12.30;99.90;;;12.50;86.88;100482.63;4992699;28;20105;-66
2023/03/26 01:04:29;;;;;;;56.40;12.47;;;12.20;99.90;;;12.50;87.07;100472.03;4995661;28;20058;-66
2023/03/26 01:07:03;;;;;;;48.35;12.52;;;12.20;99.90;;;12.32;87.25;100451.16;4996412;28;20331;-66
2023/03/26 01:09:35;;;;;;;60.50;12.43;;;12.10;99.90;;;12.40;87.22;100474.91;4996308;28;20050;-66
2023/03/26 01:12:09;;;;;;;59.03;13.13;;;12.10;99.90;;;12.33;87.50;100470.63;4996187;28;20046;-66
2023/03/26 01:14:38;;;;;;;57.50;12.63;;;12.00;99.90;;;12.20;87.31;100466.41;4995068;28;20490;-67
2023/03/26 01:17:11;;;;;;;65.63;13.88;;;11.90;99.90;;;12.12;87.58;100458.59;4996013;28;20052;-65
2023/03/26 01:19:48;;;;;;;57.33;13.20;;;11.80;99.90;;;11.99;87.51;100448.22;4994874;28;20054;-65
2023/03/26 01:22:20;;;;;;;57.38;11.93;;;11.70;99.90;;;12.02;88.12;100442.88;4995961;28;20043;-66
2023/03/26 01:24:54;;;;;;;62.05;12.45;;;11.70;99.90;;;11.99;88.04;100440.28;4994932;28;20065;-66
2023/03/26 01:27:35;;;;;;;51.40;12.50;;;11.70;99.90;;;11.92;88.08;100438.63;4994759;28;20574;-66
2023/03/26 01:30:13;;;;;;;59.38;13.00;;;11.60;99.90;;;11.87;88.35;100430.75;4995977;28;20038;-66
2023/03/26 01:32:54;;;;;;;66.60;13.38;;;11.60;99.90;;;11.84;88.49;100425.50;4995761;28;20452;-66
2023/03/26 01:35:34;;;;;;;60.33;12.27;;;11.50;99.90;;;11.79;89.07;100420.28;4994697;28;20054;-66
2023/03/26 01:38:13;;;;;;;56.17;12.35;;;11.50;99.90;;;11.74;89.55;100416.84;4994444;28;20496;-66
2023/03/26 01:40:49;;;;;;;62.65;12.48;;;11.50;99.90;;;11.69;90.00;100415.19;4995747;28;20113;-66
2023/03/26 01:43:27;;;;;;;56.75;12.73;;;11.40;99.90;;;11.77;90.04;100413.25;4995438;28;20042;-66
2023/03/26 01:45:58;;;;;;;59.95;13.55;;;11.50;99.90;;;11.82;89.91;100405.22;4995708;28;20080;-66
2023/03/26 01:48:37;;;;;;;58.83;12.65;;;11.50;99.90;;;11.78;90.05;100407.94;4995691;28;20125;-66
2023/03/26 01:51:07;;;;;;;63.92;13.63;;;11.50;99.90;;;11.77;90.17;100408.84;4994263;28;20571;-66
2023/03/26 01:53:42;;;;;;;57.67;12.10;;;11.50;99.90;;;11.81;90.08;100406.16;4995443;28;20156;-66
2023/03/26 01:56:21;;;;;;;64.80;12.68;;;11.50;99.90;;;11.85;90.00;100405.16;4995302;28;20046;-67
2023/03/26 01:59:09;;;;;;;66.43;13.93;;;11.50;99.90;;;11.86;89.51;100406.94;4995247;28;20046;-66
2023/03/26 02:01:44;;;;;;;56.63;11.82;;;11.60;99.90;;;11.84;89.47;100404.31;4993989;28;20058;-66
2023/03/26 02:04:23;;;;;;;52.88;11.85;;;11.50;99.90;;;11.87;89.38;100395.41;4995153;28;20540;-66
2023/03/26 02:07:00;;;;;;;51.83;12.18;;;11.50;99.90;;;11.86;89.67;100401.63;4995395;28;20121;-66
2023/03/26 02:09:34;;;;;;;63.03;13.82;;;11.50;99.90;;;11.72;90.37;100386.84;4995272;28;20058;-66
2023/03/26 02:12:06;;;;;;;62.38;13.63;;;11.50;99.90;;;11.72;90.98;100397.44;4993810;28;20065;-66
2023/03/26 02:14:35;;;;;;;62.67;13.80;;;11.40;99.90;;;11.78;91.43;100384.09;4994171;28;20043;-66
2023/03/26 02:17:04;;;;;;;68.68;14.45;;;11.40;99.90;;;11.84;91.65;100382.22;4995149;28;20045;-66
2023/03/26 02:19:33;;;;;;;62.22;12.77;;;11.50;99.90;;;11.89;91.30;100377.72;4994929;28;20554;-67
2023/03/26 02:22:01;;;;;;;59.45;12.88;;;11.60;99.90;;;11.87;91.76;100375.09;4994943;28;20396;-66
2023/03/26 02:24:32;;;;;;;58.90;13.20;;;11.60;99.90;;;11.54;92.12;100312.94;4993641;28;20054;-66
2023/03/26 02:27:01;;;;;;;59.70;12.65;;;11.60;99.90;;;11.92;92.41;100364.44;4994589;28;20065;-66
2023/03/26 02:29:31;;;;;;;66.35;13.52;;;11.60;99.90;;;11.85;92.71;100365.41;4993576;28;20045;-66
2023/03/26 02:32:01;;;;;;;66.82;13.82;;;11.60;99.90;;;11.84;92.85;100355.75;4993390;28;20401;-66
2023/03/26 02:34:29;;;;;;;59.63;13.23;;;11.60;99.90;;;11.95;92.90;100359.06;4993543;28;20558;-67
2023/03/26 02:36:58;;;;;;;48.88;12.32;;;11.60;99.90;;;12.02;92.62;100348.31;4993432;28;20133;-66
2023/03/26 02:39:27;;;;;;;53.75;12.30;;;11.70;99.90;;;12.08;92.08;100348.19;4993066;28;20507;-66
2023/03/26 02:41:59;;;;;;;64.97;13.07;;;11.70;99.90;;;12.06;91.85;100343.84;4993461;28;20046;-67
2023/03/26 02:44:30;;;;;;;63.13;12.77;;;11.70;99.90;;;12.13;91.37;100353.44;4993374;28;20046;-66
2023/03/26 02:46:59;;;;;;;51.35;11.23;;;11.80;99.90;;;12.07;91.11;100342.94;4994492;28;20567;-67
2023/03/26 02:49:46;;;;;;;57.10;12.23;;;11.80;99.90;;;12.06;90.89;100335.91;4994391;28;20159;-66
2023/03/26 02:52:23;;;;;;;54.08;11.40;;;11.70;99.90;;;12.04;90.85;100345.66;4993005;28;20146;-66
2023/03/26 02:54:53;;;;;;;56.42;11.75;;;11.80;99.90;;;12.02;90.64;100340.34;4993144;28;20065;-66
2023/03/26 02:57:24;;;;;;;53.33;12.40;;;11.70;99.90;;;11.84;90.52;100313.34;4993098;28;20042;-66
2023/03/26 03:00:12;;;;;;;58.20;13.10;;;11.70;99.90;;;11.92;90.26;100338.81;4994086;28;20050;-66
2023/03/26 03:02:46;;;;;;;53.47;12.57;;;11.70;99.90;;;11.92;90.30;100333.50;4994341;28;20369;-66
2023/03/26 03:05:31;;;;;;;57.30;13.15;;;11.60;99.90;;;11.85;90.63;100326.56;4993864;28;20078;-67
2023/03/26 03:08:22;;;;;;;;;;;11.60;99.90;;;11.78;90.52;100325.81;4993168;28;20058;-66
2023/03/26 03:11:14;;;;;;;51.13;12.73;;;11.50;99.90;;;11.62;90.24;100287.22;4992933;28;19930;-66
2023/03/26 03:13:45;;;;;;;41.55;11.77;;;11.50;99.90;;;11.74;90.11;100307.34;4992849;28;20054;-66
2023/03/26 03:16:22;;;;;;;48.03;12.90;;;11.40;99.90;;;11.73;89.97;100309.09;4992715;28;20408;-66
2023/03/26 03:18:55;;;;;;;50.58;12.00;;;11.40;99.90;;;11.69;89.74;100304.75;4992496;28;20048;-66
2023/03/26 03:21:29;;;;;;;45.75;11.07;;;11.40;99.90;;;11.65;89.99;100299.53;4992739;28;20054;-66
2023/03/26 03:23:58;;;;;;;53.17;12.68;;;11.30;99.90;;;11.68;89.83;100300.38;4992554;28;20047;-66
2023/03/26 03:26:29;;;;;;;49.88;11.18;;;11.30;99.90;;;11.65;89.64;100297.78;4992531;28;20097;-66
2023/03/26 03:29:04;;;;;;;45.70;10.65;;;11.30;99.90;;;11.63;89.88;100296.03;4992507;28;20062;-66
2023/03/26 03:31:34;;;;;;;46.38;11.43;;;11.30;99.90;;;11.69;89.72;100293.31;4992292;28;20050;-66
2023/03/26 03:34:05;;;;;;;44.47;11.13;;;11.40;99.90;;;11.79;89.64;100298.41;4992594;28;20144;-66
2023/03/26 03:36:38;;;;;;;42.47;10.73;;;11.40;99.90;;;11.85;89.34;100281.50;4992510;28;20060;-66
2023/03/26 03:39:15;;;;;;;43.92;11.38;;;11.50;99.90;;;11.90;88.78;100271.72;4992272;28;20495;-66
2023/03/26 03:41:44;;;;;;;37.55;9.93;;;11.60;99.90;;;11.97;88.65;100281.28;4992252;28;20109;-67
2023/03/26 03:44:15;;;;;;;44.65;11.63;;;11.60;99.90;;;11.94;88.43;100278.69;4992148;28;20039;-66
2023/03/26 03:46:47;;;;;;;42.05;11.55;;;11.60;99.90;;;11.51;88.80;100241.50;4992221;28;20463;-66
2023/03/26 03:49:16;;;;;;;45.17;11.45;;;11.50;99.90;;;11.69;89.50;100266.81;4992293;28;20108;-66
2023/03/26 03:51:45;;;;;;;37.70;10.90;;;11.40;99.90;;;11.82;88.99;100270.97;4992081;28;20050;-66
2023/03/26 03:54:23;;;;;;;47.08;11.52;;;11.50;99.90;;;11.83;88.96;100272.72;4993333;28;20121;-66
2023/03/26 03:57:04;;;;;;;47.13;12.15;;;11.50;99.90;;;11.88;88.85;100267.34;4992255;28;20046;-66
2023/03/26 03:59:50;;;;;;;47.45;11.23;;;11.50;99.90;;;11.88;88.79;100262.03;4992037;28;20053;-67
2023/03/26 04:02:24;;;;;;;43.35;10.88;;;11.50;99.90;;;11.97;88.52;100259.19;4991957;28;20050;-66
2023/03/26 04:04:58;;;;;;;42.80;11.83;;;11.60;99.90;;;12.01;88.44;100256.47;4991602;28;20504;-68
2023/03/26 04:07:31;;;;;;;45.78;11.93;;;11.70;99.90;;;12.00;88.42;100245.91;4992025;28;20515;-66
2023/03/26 04:10:08;;;;;;;41.92;10.77;;;11.70;99.90;;;11.95;88.56;100240.69;4993333;28;20061;-66
2023/03/26 04:13:08;;;;;;;44.45;10.90;;;11.70;99.90;;;12.04;88.71;100245.78;4981137;28;20133;-67
2023/03/26 04:16:10;;;;;;;42.88;10.32;;;11.70;99.90;;;12.05;88.47;100233.41;4970631;28;20054;-66
2023/03/26 04:18:40;;;;;;;46.50;12.13;;;11.80;99.90;;;11.99;88.64;100238.84;4991846;28;20104;-66
2023/03/26 04:21:15;;;;;;;42.15;10.60;;;11.70;99.90;;;11.68;89.34;100227.97;4993186;28;20038;-66
2023/03/26 04:23:45;;;;;;;49.47;11.57;;;11.50;99.90;;;11.65;89.84;100220.06;4991799;28;20129;-66
2023/03/26 04:26:24;;;;;;;41.60;10.63;;;11.40;99.90;;;11.70;90.07;100216.44;4991899;28;20046;-66
2023/03/26 04:29:10;;;;;;;47.33;11.05;;;11.40;99.90;;;11.52;90.54;100200.88;4991895;28;20064;-66
2023/03/26 04:31:39;;;;;;;41.08;10.13;;;11.40;99.90;;;11.72;90.71;100211.13;4991789;28;20108;-67
2023/03/26 04:34:22;;;;;;;37.25;10.48;;;11.40;99.90;;;11.18;90.25;100091.22;4991632;28;20053;-66
2023/03/26 04:37:04;;;;;;;35.25;10.02;;;11.50;99.90;;;11.84;90.35;100196.75;4993473;28;20492;-66
2023/03/26 04:39:38;;;;;;;42.95;11.10;;;11.60;99.90;;;11.84;90.49;100192.34;4995426;28;20054;-66
2023/03/26 04:42:27;;;;;;;45.47;11.45;;;11.60;99.90;;;11.73;90.38;100184.59;4996493;28;20133;-66
2023/03/26 04:45:08;;;;;;;45.72;11.73;;;11.60;99.90;;;11.62;90.40;100185.66;4995635;28;20407;-66
2023/03/26 04:47:37;;;;;;;42.65;11.70;;;11.50;99.90;;;11.21;92.04;100178.50;4995512;28;20043;-66
2023/03/26 04:50:11;;;;;;;43.33;11.68;;;11.10;99.90;;;10.89;94.13;100175.56;4995369;28;20065;-66
2023/03/26 04:52:41;;;;;;;55.13;13.27;;;10.70;99.90;;;11.01;94.72;100171.84;4995344;28;20495;-66
2023/03/26 04:55:38;;;;;;;43.63;11.70;;;10.70;99.90;;;11.18;94.38;100162.69;4996613;28;20124;-65
2023/03/26 04:58:15;;;;;;;45.92;11.25;;;10.90;99.90;;;11.29;94.28;100160.72;4995246;28;20309;-66
2023/03/26 05:00:54;;;;;;;45.28;11.68;;;11.00;99.90;;;11.20;93.59;100126.47;4995177;28;20046;-66
2023/03/26 05:03:22;;;;;;;44.58;11.68;;;11.10;99.90;;;11.40;93.79;100152.59;4995030;28;20045;-66
2023/03/26 05:05:52;;;;;;;48.63;12.43;;;11.10;99.90;;;11.44;93.61;100141.88;4996519;28;20146;-66
2023/03/26 05:08:21;;;;;;;51.70;12.18;;;11.20;99.90;;;11.51;93.51;100135.59;4995184;28;20054;-66
2023/03/26 05:10:49;;;;;;;53.53;12.70;;;11.30;99.90;;;11.24;93.37;100122.88;4994999;28;20400;-65
2023/03/26 05:13:28;;;;;;;43.00;12.45;;;11.20;99.90;;;11.32;94.01;100128.91;4995001;28;20049;-65
2023/03/26 05:16:00;;;;;;;41.97;10.48;;;11.10;99.90;;;11.46;93.69;100136.53;4995062;28;20471;-65
2023/03/26 05:18:58;;;;;;;45.78;11.15;;;11.20;99.90;;;11.46;93.75;100137.44;4987730;28;20054;-65
2023/03/26 05:21:33;;;;;;;45.97;11.85;;;11.20;99.90;;;11.52;93.51;100121.41;4994855;28;20137;-66
2023/03/26 05:24:02;;;;;;;46.55;11.77;;;11.30;99.90;;;11.57;93.21;100151.34;4995991;28;20074;-67
2023/03/26 05:26:31;;;;;;;45.40;12.30;;;11.30;99.90;;;11.61;93.01;100125.66;4994613;28;20054;-65
2023/03/26 05:29:01;;;;;;;34.97;10.05;;;11.40;99.90;;;11.00;92.93;100051.00;4994653;28;20053;-66
2023/03/26 05:31:34;;;;;;;49.22;12.50;;;11.30;99.90;;;11.15;94.13;100123.03;4994982;28;20062;-66
2023/03/26 05:34:05;;;;;;;44.83;11.70;;;11.10;99.90;;;11.14;94.74;100120.41;4994466;28;20046;-68
2023/03/26 05:36:35;;;;;;;50.72;12.00;;;11.00;99.90;;;11.12;94.62;100120.47;4994529;28;20427;-66
2023/03/26 05:39:13;;;;;;;43.28;11.25;;;11.00;99.90;;;11.12;95.35;100111.63;4994667;28;20050;-65
2023/03/26 05:42:16;;;;;;;45.13;12.18;;;10.90;99.90;;;11.30;94.93;100111.28;4989439;28;20046;-66
2023/03/26 05:45:21;;;;;;;46.55;11.13;;;11.00;99.90;;;11.42;94.76;100106.63;4995306;28;20050;-66
2023/03/26 05:47:50;;;;;;;50.78;11.40;;;11.10;99.90;;;11.31;94.61;100099.78;4994356;28;20492;-66
2023/03/26 05:50:19;;;;;;;49.03;12.00;;;11.10;99.90;;;11.36;94.50;100116.47;4992929;28;20050;-66
2023/03/26 05:52:50;;;;;;;59.08;12.32;;;11.20;99.90;;;11.14;94.89;100112.47;4994194;28;20057;-66
2023/03/26 05:55:56;;;;;;;47.83;11.95;;;11.00;99.90;;;10.66;96.51;100095.72;4995408;28;20106;-65
2023/03/26 05:58:51;;;;;;;44.53;11.35;;;10.60;99.90;;;10.49;99.05;100105.72;4986833;28;20468;-65
2023/03/26 06:01:55;;;;;;;41.22;10.73;;;10.30;99.90;;;10.25;100.00;100100.81;4954212;28;20092;-65
2023/03/26 06:04:44;;;;;;;51.08;11.65;;;10.10;99.90;;;10.16;100.00;100107.13;4992115;28;20054;-65
2023/03/26 06:07:32;;;;;;;52.40;10.52;;;10.00;99.90;;;9.91;100.00;100106.56;4993859;28;20097;-65
2023/03/26 06:10:17;;;;;;;45.63;12.02;;;9.70;99.90;;;9.78;100.00;100097.06;4993733;28;20058;-66
2023/03/26 06:12:48;;;;;;;53.53;13.23;;;9.50;99.90;;;9.67;100.00;100092.81;4994002;28;20053;-65
2023/03/26 06:15:17;;;;;;;44.15;11.57;;;9.40;99.90;;;9.40;100.00;100101.09;4993832;28;20096;-66
2023/03/26 06:17:57;;;;;;;50.28;12.88;;;9.20;99.90;;;9.24;100.00;100089.84;4993747;28;20039;-64
2023/03/26 06:20:36;;;;;;;51.97;12.43;;;9.00;99.90;;;9.24;100.00;100083.69;4994802;28;20058;-64
2023/03/26 06:23:11;;;;;;;63.20;14.43;;;9.00;99.90;;;9.20;100.00;100074.94;4993819;28;20081;-65
2023/03/26 06:25:54;;;;;;;67.35;13.93;;;9.00;99.90;;;9.18;100.00;100076.72;4993642;28;20140;-65
2023/03/26 06:28:58;;;;;;;44.85;13.23;;;9.00;99.90;;;9.15;100.00;100082.03;4973045;28;20452;-64
2023/03/26 06:31:46;;;;;;;53.38;13.50;;;8.90;99.90;;;9.22;100.00;100080.19;4991981;28;20537;-66
2023/03/26 06:34:25;;;;;;;56.88;13.23;;;9.00;99.90;;;9.35;100.00;100077.38;4993540;28;20050;-63
2023/03/26 06:36:54;;;;;;;58.65;14.35;;;9.10;99.90;;;9.33;100.00;100071.25;4993312;28;20610;-64
2023/03/26 06:39:23;;;;;;;56.28;14.23;;;9.20;99.90;;;9.52;100.00;100077.19;4993167;28;20050;-64
2023/03/26 06:42:09;;;;;;;61.28;14.98;;;9.30;99.90;;;9.74;100.00;100082.16;4993261;28;20046;-65
2023/03/26 06:45:07;;;;;;;54.35;15.13;;;9.50;99.90;;;9.41;100.00;100077.31;4993527;28;20054;-65
2023/03/26 06:47:58;;;;;;;52.83;15.45;;;9.30;99.90;;;9.46;100.00;100075.50;4994708;28;20510;-64
2023/03/26 06:51:07;;;;;;;53.13;15.07;;;9.20;99.90;;;9.58;100.00;100077.97;4972733;28;20049;-64
2023/03/26 06:54:20;;;;;;;60.25;15.20;;;9.30;99.90;;;9.55;100.00;100077.13;4994304;28;20125;-64
2023/03/26 06:56:57;;;;;;;56.78;16.05;;;9.40;99.90;;;9.53;100.00;100079.81;4992727;28;20081;-65
2023/03/26 06:59:46;;;;;;;62.00;15.77;;;9.30;99.90;;;9.75;100.00;100081.28;4994332;28;20077;-66
2023/03/26 07:02:33;;;;;;;58.17;16.30;;;9.50;99.90;;;9.94;100.00;100071.31;4993831;28;20064;-67
2023/03/26 07:05:20;;;;;;;53.28;16.20;;;9.70;99.90;;;10.10;100.00;100070.22;4993729;28;20132;-65
2023/03/26 07:08:29;;;;;;;55.97;16.60;;;9.90;99.90;;;10.00;100.00;100074.75;4972168;28;20134;-63
2023/03/26 07:11:33;;;;;;;48.65;16.23;;;9.90;99.90;;;9.63;100.00;100073.50;4895974;29;20542;-64
2023/03/26 07:14:20;;;;;;;41.88;16.20;;;9.50;99.90;;;9.60;100.00;100072.69;4985441;28;20060;-62
2023/03/26 07:17:12;;;;;;;48.55;17.95;;;9.50;99.90;;;9.77;100.00;100079.50;4983618;28;20050;-64
2023/03/26 07:19:53;;;;;;;45.75;15.63;;;9.60;99.90;;;9.77;100.00;100084.78;4993842;28;20094;-68
2023/03/26 07:22:26;;;;;;;39.40;15.75;;;9.60;99.90;;;9.52;100.00;100080.72;4992217;28;20047;-62
2023/03/26 07:25:09;;;;;;;49.80;17.60;;;9.30;99.90;;;9.56;100.00;100071.81;4993667;28;20047;-63
2023/03/26 07:28:14;;;;;;;46.03;17.15;;;9.30;99.90;;;9.87;100.00;100046.75;4977748;28;20058;-63
2023/03/26 07:31:07;;;;;;;38.75;17.08;;;9.70;99.90;;;10.18;100.00;100073.59;4993545;28;20088;-63
2023/03/26 07:33:53;;;;;;;43.22;16.52;;;9.90;99.90;;;10.34;100.00;100069.81;4992048;28;20046;-62
2023/03/26 07:36:48;;;;;;;33.63;15.02;;;10.10;99.90;;;10.28;100.00;100072.56;4992168;28;20128;-65
2023/03/26 07:39:46;;;;;;;30.90;13.60;;;10.20;99.90;;;10.39;100.00;100077.69;4992000;28;20050;-64
2023/03/26 07:42:49;;;;;;;29.25;12.07;;;10.20;99.90;;;10.36;100.00;100077.72;4992068;28;20046;-63
2023/03/26 07:45:40;;;;;;;25.35;11.85;;;10.30;99.90;;;10.39;100.00;100072.41;4993309;28;20045;-63
2023/03/26 07:48:19;;;;;;;29.17;12.68;;;10.20;99.90;;;10.40;100.00;100063.56;4993212;28;20415;-64
2023/03/26 07:51:18;;;;;;;30.35;12.98;;;10.30;99.90;;;10.57;100.00;100072.06;4983534;28;20058;-65
2023/03/26 07:54:10;;;;;;;28.08;12.75;;;10.40;99.90;;;10.69;100.00;100074.50;4989023;28;20540;-64
2023/03/26 07:56:45;;;;;;;28.92;13.85;;;10.50;99.90;;;10.82;100.00;100073.38;4993076;28;20054;-65
2023/03/26 07:59:40;;;;;;;31.80;12.65;;;10.60;99.90;;;10.91;100.00;100070.59;4992965;28;20046;-64
2023/03/26 08:03:02;;;;;;;28.92;13.57;;;10.70;99.90;;;11.04;100.00;100074.75;4991836;28;20516;-62
2023/03/26 08:06:05;;;;;;;33.28;14.68;;;10.80;99.90;;;11.14;100.00;100068.38;4973697;28;20058;-66
2023/03/26 08:08:52;;;;;;;41.53;15.65;;;10.90;99.90;;;11.22;100.00;100071.75;4991774;28;20504;-67
2023/03/26 08:11:53;;;;;;;29.70;14.38;;;11.00;99.90;;;11.26;100.00;100073.44;4992963;28;20054;-66
2023/03/26 08:14:34;;;;;;;33.85;14.73;;;11.10;99.90;;;11.31;100.00;100074.19;4996534;28;20042;-65
2023/03/26 08:17:10;;;;;;;32.13;13.55;;;11.10;99.90;;;11.01;100.00;100066.00;4997165;28;20117;-65
2023/03/26 08:19:51;;;;;;;37.38;14.43;;;11.00;99.90;;;11.17;100.00;100070.09;4995827;28;20060;-65
2023/03/26 08:22:26;;;;;;;30.65;13.00;;;10.90;99.90;;;11.18;100.00;100046.25;4997209;28;20077;-64
2023/03/26 08:25:18;;;;;;;32.28;14.30;;;11.10;99.90;;;11.43;100.00;100073.94;4995781;28;20043;-64
2023/03/26 08:28:09;;;;;;;26.08;14.27;;;11.20;99.90;;;11.24;100.00;100077.00;4996761;28;20039;-64
2023/03/26 08:30:38;;;;;;;33.00;13.57;;;11.20;99.90;;;10.78;100.00;100077.00;4996848;28;20117;-65
2023/03/26 08:33:16;;;;;;;30.88;14.05;;;10.80;99.90;;;10.86;100.00;100075.94;4997132;28;20039;-64
2023/03/26 08:35:45;;;;;;;38.20;15.07;;;10.70;99.90;;;10.49;100.00;100068.72;4996710;28;20408;-66
2023/03/26 08:38:18;;;;;;;35.83;14.77;;;10.40;99.90;;;10.50;100.00;100079.25;4995413;28;20066;-65
2023/03/26 08:41:56;;;;;;;30.88;15.30;;;10.30;99.90;;;10.85;100.00;100081.28;4996708;28;20433;-67
2023/03/26 08:45:22;;;;;;;29.02;13.85;;;10.50;99.90;;;10.85;100.00;100076.88;4996432;28;20047;-66
2023/03/26 08:48:28;;;;;;;31.10;13.48;;;10.60;99.90;;;11.15;100.00;100080.69;4996510;28;20109;-68
2023/03/26 08:51:26;;;;;;;35.30;12.98;;;10.80;99.90;;;11.20;100.00;100080.59;4995398;28;20518;-66
2023/03/26 08:54:44;;;;;;;26.48;12.93;;;10.90;99.90;;;11.40;100.00;100075.81;4995225;28;20052;-66
2023/03/26 08:57:38;;;;;;;26.20;12.25;;;11.20;99.90;;;11.39;100.00;100082.84;4996555;28;20045;-67
2023/03/26 09:00:42;;;;;;;24.55;12.25;;;11.20;99.90;;;10.93;100.00;100052.03;4996238;28;20049;-67
2023/03/26 09:03:30;;;;;;;23.80;12.77;;;10.90;99.90;;;11.39;100.00;100080.22;4994756;28;20134;-65
2023/03/26 09:06:36;;;;;;;29.27;12.07;;;11.10;99.90;;;11.45;100.00;100076.56;4996159;28;20054;-66
2023/03/26 09:09:43;;;;;;;23.25;11.05;;;11.20;99.90;;;11.20;100.00;100070.03;4988059;28;20065;-65
2023/03/26 09:13:03;;;;;;;15.55;7.88;;;11.20;99.90;;;10.71;97.96;100081.53;4996296;28;20508;-66
2023/03/26 09:16:26;;;;;;;14.70;6.85;;;10.90;99.90;;;10.50;98.86;100081.91;4992949;28;20062;-65
2023/03/26 09:19:30;;;;;;;14.85;7.43;;;10.50;99.90;;;10.38;100.00;100066.22;4996165;28;20104;-65
2023/03/26 09:22:44;;;;;;;17.50;7.72;;;10.20;99.90;;;10.77;100.00;100080.53;4994532;28;20046;-65
2023/03/26 09:25:53;;;;;;;16.95;8.30;;;10.50;99.90;;;10.91;100.00;100086.47;4994497;28;20054;-65
2023/03/26 09:29:03;;;;;;;24.85;9.18;;;10.60;99.90;;;11.20;100.00;100083.25;4995837;28;20057;-62
2023/03/26 09:32:10;;;;;;;22.00;8.98;;;10.90;99.90;;;10.80;100.00;99985.28;4995733;28;20569;-63
2023/03/26 09:35:03;;;;;;;18.77;9.05;;;11.10;99.90;;;11.48;100.00;100085.31;4995726;28;20138;-64
2023/03/26 09:37:52;;;;;;;22.63;9.07;;;11.30;99.90;;;11.50;99.49;100087.91;4994466;28;20104;-64
2023/03/26 09:40:37;;;;;;;21.08;9.07;;;11.30;99.90;;;11.55;98.85;100097.53;4994502;28;20447;-64
2023/03/26 09:43:43;;;;;;;20.80;9.13;;;11.40;99.90;;;11.58;98.47;100104.53;4995444;28;20049;-63
2023/03/26 09:46:29;;;;;;;20.17;8.05;;;11.40;99.90;;;11.65;98.43;100108.81;4995396;28;20046;-64
2023/03/26 09:49:27;;;;;;;20.45;8.05;;;11.40;99.90;;;11.67;97.98;100107.88;4995574;28;20105;-64
2023/03/26 09:52:41;;;;;;;20.48;7.80;;;11.50;99.90;;;11.72;97.58;100115.75;4992977;28;20459;-65
2023/03/26 09:55:39;;;;;;;15.27;6.93;;;11.50;99.90;;;11.71;97.35;100148.47;4995336;28;20042;-63
2023/03/26 09:58:56;;;;;;;18.20;9.77;;;11.50;99.90;;;11.34;97.25;100116.47;4995397;28;20097;-65
2023/03/26 10:01:36;;;;;;;23.63;15.90;;;11.30;99.90;;;11.21;97.94;100117.63;4995180;28;20057;-63
2023/03/26 10:04:39;;;;;;;27.00;16.20;;;11.10;99.90;;;11.20;98.03;100129.13;4993912;28;20054;-64
2023/03/26 10:07:22;;;;;;;28.23;17.67;;;11.10;99.90;;;11.19;98.46;100121.22;4995541;28;20372;-63
2023/03/26 10:09:57;;;;;;;29.23;18.67;;;11.00;99.90;;;11.24;98.53;100137.88;4995098;28;20484;-61
2023/03/26 10:12:35;;;;;;;32.20;19.90;;;11.00;99.90;;;11.23;98.75;100131.72;4993970;28;20088;-64
2023/03/26 10:15:18;;;;;;;37.90;22.15;;;11.00;99.90;;;11.24;98.59;100130.81;4995160;28;20385;-63
2023/03/26 10:18:04;;;;;;;37.38;19.85;;;11.10;99.90;;;11.23;98.64;100136.13;4995059;28;20121;-66
2023/03/26 10:21:02;;;;;;;35.15;19.98;;;11.10;99.90;;;11.20;98.44;100133.53;4993776;28;20053;-68
2023/03/26 10:23:56;;;;;;;41.88;20.30;;;11.00;99.90;;;11.17;98.52;100134.47;4993683;28;20042;-63
2023/03/26 10:27:01;;;;;;;38.40;20.65;;;11.00;99.90;;;10.95;98.67;100135.78;4994822;28;20050;-63
2023/03/26 10:30:29;;;;;;;35.80;18.45;;;10.90;99.90;;;10.94;99.13;100139.31;4993183;28;20090;-66
2023/03/26 10:33:11;;;;;;;39.05;18.90;;;10.80;99.90;;;10.91;99.21;100152.59;4970036;28;20062;-65
2023/03/26 10:36:00;;;;;;;34.67;17.55;;;10.70;99.90;;;10.93;99.21;100145.50;4993923;28;20081;-64
2023/03/26 10:38:52;;;;;;;39.80;17.40;;;10.80;99.90;;;11.00;99.31;100155.06;4994606;28;20117;-66
2023/03/26 10:41:30;;;;;;;33.80;16.48;;;10.80;99.90;;;11.04;99.20;100156.78;4994440;28;20051;-64
2023/03/26 10:44:48;;;;;;;29.15;14.27;;;10.90;99.90;;;11.04;98.78;100154.13;4994467;28;20403;-65
2023/03/26 10:47:44;;;;;;;23.88;12.00;;;10.90;99.90;;;11.17;98.42;100160.94;4994451;28;20042;-64
2023/03/26 10:50:35;;;;;;;28.42;9.48;;;11.00;99.90;;;11.03;97.82;100193.84;4994342;28;20117;-64
2023/03/26 10:53:13;;;;;;;22.63;9.10;;;10.90;99.90;;;11.08;98.26;100166.41;4994299;28;20447;-64
2023/03/26 10:55:45;;;;;;;24.35;9.73;;;10.90;99.90;;;11.04;98.14;100175.28;4994259;28;20144;-64
2023/03/26 10:58:23;;;;;;;27.30;8.82;;;10.90;99.90;;;11.05;98.31;100171.75;4994157;28;20042;-63
2023/03/26 11:00:57;;;;;;;27.80;8.68;;;10.90;99.90;;;11.03;97.65;100185.91;4994301;28;20066;-63
2023/03/26 11:03:54;;;;;;;23.67;8.95;;;10.90;99.90;;;11.10;97.82;100180.47;4994083;28;20076;-61